Time;durP1;ratioP1;P1;durP2;ratioP2;P2;SDS_P1;SDS_P2;PMS_P1;PMS_P2;Temp;Humidity;BMP_temperature;BMP_pressure;BME280_temperature;BME280_humidity;BME280_pressure;Samples;Min_cycle;Max_cycle;Signal;HPM_P1;HPM_P2
2023/11/13 00:00:21;;;;;;;17.20;6.83;;;6.00;99.90;;;;;;4870579;29;20195;-76
2023/11/13 00:02:47;;;;;;;8.70;6.97;;;6.00;99.90;;;;;;4873323;29;20191;-76
2023/11/13 00:05:13;;;;;;;8.40;7.00;;;6.20;99.90;;;;;;4858780;29;20535;-75
2023/11/13 00:07:38;;;;;;;12.30;7.53;;;6.10;99.90;;;;;;4877989;29;20204;-76
2023/11/13 00:10:06;;;;;;;8.67;5.57;;;6.10;99.90;;;;;;4868399;29;20294;-77
2023/11/13 00:12:34;;;;;;;13.80;7.53;;;6.20;99.90;;;;;;4881476;29;20675;-75
2023/11/13 00:14:59;;;;;;;12.87;6.93;;;6.20;99.90;;;;;;4856150;29;20457;-76
2023/11/13 00:17:26;;;;;;;8.33;6.27;;;6.30;99.90;;;;;;4889987;29;20424;-76
2023/11/13 00:19:51;;;;;;;11.80;7.30;;;6.20;99.90;;;;;;4883537;29;20188;-77
2023/11/13 00:22:17;;;;;;;10.13;6.67;;;6.20;99.90;;;;;;4876921;29;20436;-75
2023/11/13 00:24:43;;;;;;;12.00;6.43;;;6.30;99.90;;;;;;4886649;29;20235;-77
2023/11/13 00:27:08;;;;;;;10.17;6.60;;;6.10;99.90;;;;;;4880603;29;20254;-77
2023/11/13 00:29:34;;;;;;;9.40;7.13;;;6.20;99.90;;;;;;4856132;29;20189;-76
2023/11/13 00:31:59;;;;;;;9.10;5.90;;;6.20;99.90;;;;;;4855528;29;20223;-76
2023/11/13 00:34:25;;;;;;;11.70;5.90;;;6.20;99.90;;;;;;4875825;29;20206;-76
2023/11/13 00:36:50;;;;;;;7.70;6.03;;;6.20;99.90;;;;;;4860435;29;20464;-76
2023/11/13 00:39:19;;;;;;;7.37;5.23;;;6.30;99.90;;;;;;4876751;29;20476;-77
2023/11/13 00:41:45;;;;;;;10.20;6.77;;;6.30;99.90;;;;;;4867012;29;20192;-79
2023/11/13 00:44:10;;;;;;;9.63;6.60;;;6.20;99.90;;;;;;4852983;29;20482;-76
2023/11/13 00:46:36;;;;;;;8.10;5.60;;;6.30;99.90;;;;;;4856333;29;20436;-75
2023/11/13 00:49:02;;;;;;;7.13;5.50;;;6.30;99.90;;;;;;4878684;29;20542;-78
2023/11/13 00:51:28;;;;;;;7.20;6.50;;;6.30;99.90;;;;;;4864005;29;20200;-78
2023/11/13 00:53:54;;;;;;;8.77;6.23;;;6.20;99.90;;;;;;4870967;29;20351;-76
2023/11/13 00:56:20;;;;;;;9.93;6.53;;;6.20;99.90;;;;;;4850501;29;20473;-76
2023/11/13 00:58:45;;;;;;;8.90;5.97;;;6.20;99.90;;;;;;4850518;29;20296;-76
2023/11/13 01:01:13;;;;;;;8.47;5.70;;;6.10;99.90;;;;;;4845811;29;20307;-77
2023/11/13 01:03:39;;;;;;;9.57;5.20;;;6.10;99.90;;;;;;4857338;29;20192;-76
2023/11/13 01:06:05;;;;;;;8.23;5.07;;;6.20;99.90;;;;;;4845188;29;20448;-78
2023/11/13 01:08:31;;;;;;;8.27;5.10;;;6.30;99.90;;;;;;4854729;29;20686;-76
2023/11/13 01:10:56;;;;;;;9.07;6.10;;;6.20;99.90;;;;;;4865740;29;20219;-78
2023/11/13 01:13:22;;;;;;;8.60;4.60;;;6.30;99.90;;;;;;4863811;29;20189;-77
2023/11/13 01:15:48;;;;;;;7.30;5.47;;;6.30;99.90;;;;;;4865658;29;20235;-76
2023/11/13 01:18:18;;;;;;;6.40;5.13;;;6.30;99.90;;;;;;4869078;29;20271;-76
2023/11/13 01:20:44;;;;;;;7.73;5.43;;;6.30;99.90;;;;;;4885847;29;20476;-76
2023/11/13 01:23:11;;;;;;;9.57;6.07;;;6.40;99.90;;;;;;4846127;29;20882;-76
2023/11/13 01:25:36;;;;;;;10.83;4.90;;;6.50;99.90;;;;;;4857287;29;20506;-76
2023/11/13 01:28:02;;;;;;;7.90;4.70;;;6.50;99.90;;;;;;4845755;29;21294;-76
2023/11/13 01:30:28;;;;;;;8.83;4.83;;;6.40;99.90;;;;;;4869885;29;20589;-75
2023/11/13 01:32:54;;;;;;;5.80;4.70;;;6.30;99.90;;;;;;4835380;29;20534;-76
2023/11/13 01:35:19;;;;;;;7.63;4.50;;;6.40;99.90;;;;;;4876908;29;20662;-75
2023/11/13 01:37:46;;;;;;;7.80;4.37;;;6.40;99.90;;;;;;4874085;29;20517;-76
2023/11/13 01:40:12;;;;;;;6.00;4.53;;;6.40;99.90;;;;;;4871316;29;20197;-76
2023/11/13 01:42:38;;;;;;;7.93;4.30;;;6.40;99.90;;;;;;4845564;29;20441;-76
2023/11/13 01:45:06;;;;;;;9.40;4.60;;;6.40;99.90;;;;;;4879693;29;20947;-77
2023/11/13 01:47:32;;;;;;;5.97;4.53;;;6.40;99.90;;;;;;4870848;29;20438;-77
2023/11/13 01:49:58;;;;;;;6.30;4.00;;;6.40;99.90;;;;;;4870921;29;20995;-77
2023/11/13 01:52:29;;;;;;;6.07;4.53;;;6.50;99.90;;;;;;4852114;29;20563;-77
2023/11/13 01:54:55;;;;;;;7.00;4.50;;;6.50;99.90;;;;;;4868873;29;20461;-77
2023/11/13 01:57:21;;;;;;;7.10;4.23;;;6.50;99.90;;;;;;4856727;29;20416;-75
2023/11/13 01:59:48;;;;;;;6.43;4.70;;;6.50;99.90;;;;;;4837246;29;20441;-76
2023/11/13 02:02:14;;;;;;;6.80;4.60;;;6.60;99.90;;;;;;4852978;29;20201;-76
2023/11/13 02:04:40;;;;;;;7.37;3.77;;;6.50;99.90;;;;;;4878233;29;20478;-76
2023/11/13 02:07:06;;;;;;;6.77;4.13;;;6.60;99.90;;;;;;4851995;29;20429;-75
2023/11/13 02:09:33;;;;;;;5.73;4.50;;;6.60;99.90;;;;;;4886220;29;20200;-76
2023/11/13 02:11:59;;;;;;;6.97;3.63;;;6.60;99.90;;;;;;4886323;29;20982;-75
2023/11/13 02:14:25;;;;;;;5.33;4.00;;;6.70;99.90;;;;;;4869442;29;20433;-76
2023/11/13 02:17:01;;;;;;;5.83;4.30;;;6.70;99.90;;;;;;4885267;29;20247;-76
2023/11/13 02:19:27;;;;;;;6.97;4.87;;;6.70;99.90;;;;;;4853034;29;20884;-76
2023/11/13 02:21:53;;;;;;;5.13;4.17;;;6.70;99.90;;;;;;4861144;29;20433;-77
2023/11/13 02:24:20;;;;;;;9.40;4.90;;;6.70;99.90;;;;;;4851535;29;20204;-76
2023/11/13 02:26:46;;;;;;;6.33;4.50;;;6.80;99.90;;;;;;4852327;29;20531;-75
2023/11/13 02:29:11;;;;;;;11.27;4.70;;;6.70;99.90;;;;;;4879529;29;20433;-75
2023/11/13 02:31:49;;;;;;;4.73;3.60;;;6.70;99.90;;;;;;4874900;29;20234;-76
2023/11/13 02:34:15;;;;;;;5.93;3.90;;;6.60;99.90;;;;;;4854572;29;20545;-76
2023/11/13 02:36:40;;;;;;;4.53;3.83;;;6.60;99.90;;;;;;4871852;29;20409;-77
2023/11/13 02:39:06;;;;;;;10.20;4.70;;;6.70;99.90;;;;;;4888911;29;20180;-76
2023/11/13 02:41:32;;;;;;;5.60;4.00;;;6.60;99.90;;;;;;4889304;29;20223;-76
2023/11/13 02:43:58;;;;;;;4.03;3.67;;;6.60;99.90;;;;;;4862631;29;20604;-75
2023/11/13 02:46:24;;;;;;;7.53;4.50;;;6.60;99.90;;;;;;4872297;29;20492;-76
2023/11/13 02:48:49;;;;;;;5.60;4.20;;;6.60;99.90;;;;;;4868806;29;20248;-75
2023/11/13 02:51:16;;;;;;;5.10;4.03;;;6.70;99.90;;;;;;4866873;29;20267;-75
2023/11/13 02:53:41;;;;;;;6.27;3.90;;;6.70;99.90;;;;;;4848526;29;20212;-76
2023/11/13 02:56:07;;;;;;;7.20;4.43;;;6.80;99.90;;;;;;4883453;29;20444;-76
2023/11/13 02:58:33;;;;;;;5.87;4.00;;;6.90;99.90;;;;;;4862821;29;20267;-77
2023/11/13 03:00:58;;;;;;;5.10;4.20;;;6.90;99.90;;;;;;4866899;29;20211;-77
2023/11/13 03:03:26;;;;;;;6.43;4.60;;;6.90;99.90;;;;;;4870607;29;20418;-75
2023/11/13 03:05:52;;;;;;;5.63;4.20;;;6.90;99.90;;;;;;4890880;29;20222;-76
2023/11/13 03:08:17;;;;;;;6.00;3.50;;;7.00;99.90;;;;;;4882140;29;20421;-75
2023/11/13 03:10:43;;;;;;;7.13;4.30;;;7.00;99.90;;;;;;4872470;29;20437;-77
2023/11/13 03:13:09;;;;;;;7.00;4.43;;;7.00;99.90;;;;;;4895313;29;20196;-75
2023/11/13 03:15:34;;;;;;;7.70;4.97;;;7.00;99.90;;;;;;4872413;29;20244;-76
2023/11/13 03:18:00;;;;;;;10.27;4.87;;;7.00;99.90;;;;;;4871448;29;20271;-77
2023/11/13 03:20:26;;;;;;;8.63;5.10;;;6.90;99.90;;;;;;4853414;29;20204;-76
2023/11/13 03:22:52;;;;;;;9.77;6.20;;;6.80;99.90;;;;;;4852090;29;20232;-78
2023/11/13 03:25:19;;;;;;;6.13;4.60;;;6.80;99.90;;;;;;4867253;29;20467;-76
2023/11/13 03:27:45;;;;;;;6.80;4.87;;;6.90;99.90;;;;;;4859594;29;20584;-76
2023/11/13 03:30:11;;;;;;;6.70;4.43;;;6.80;99.90;;;;;;4851000;29;20422;-76
2023/11/13 03:32:36;;;;;;;6.67;4.47;;;6.80;99.90;;;;;;4855985;29;20658;-77
2023/11/13 03:35:03;;;;;;;5.67;4.83;;;6.70;99.90;;;;;;4877061;29;20706;-77
2023/11/13 03:37:29;;;;;;;5.90;3.97;;;6.80;99.90;;;;;;4850688;29;20449;-75
2023/11/13 03:39:54;;;;;;;3.83;3.33;;;6.80;99.90;;;;;;4850996;29;20436;-76
2023/11/13 03:42:20;;;;;;;5.27;3.40;;;6.80;99.90;;;;;;4860089;29;20340;-77
2023/11/13 03:44:45;;;;;;;4.63;3.53;;;6.70;99.90;;;;;;4850277;29;20220;-76
2023/11/13 03:47:12;;;;;;;5.63;4.37;;;6.70;99.90;;;;;;4865240;29;20720;-76
2023/11/13 03:49:37;;;;;;;6.77;3.60;;;6.80;99.90;;;;;;4863472;29;20248;-76
2023/11/13 03:52:04;;;;;;;6.93;4.80;;;6.70;99.90;;;;;;4865860;29;20480;-76
2023/11/13 03:54:30;;;;;;;5.60;3.90;;;6.80;99.90;;;;;;4855865;29;20522;-76
2023/11/13 03:56:57;;;;;;;8.23;4.30;;;6.80;99.90;;;;;;4853086;29;20262;-77
2023/11/13 03:59:23;;;;;;;5.77;4.27;;;6.80;99.90;;;;;;4881258;29;20176;-77
2023/11/13 04:01:48;;;;;;;4.47;3.00;;;6.70;99.90;;;;;;4875274;29;20493;-77
2023/11/13 04:04:14;;;;;;;6.63;4.93;;;6.70;99.90;;;;;;4849506;29;20252;-76
2023/11/13 04:06:39;;;;;;;5.33;3.23;;;6.80;99.90;;;;;;4879063;29;20195;-77
2023/11/13 04:09:06;;;;;;;5.57;4.40;;;6.80;99.90;;;;;;4856404;29;20199;-77
2023/11/13 04:11:32;;;;;;;10.27;5.03;;;6.70;99.90;;;;;;4866306;29;20220;-76
2023/11/13 04:13:57;;;;;;;6.70;5.37;;;6.70;99.90;;;;;;4839193;29;20727;-76
2023/11/13 04:16:24;;;;;;;9.30;5.77;;;6.70;99.90;;;;;;4860885;29;20215;-76
2023/11/13 04:18:50;;;;;;;7.43;5.20;;;6.80;99.90;;;;;;4865478;29;20458;-76
2023/11/13 04:21:16;;;;;;;9.70;6.47;;;6.70;99.90;;;;;;4883975;29;20475;-76
2023/11/13 04:23:41;;;;;;;7.27;5.53;;;6.90;99.90;;;;;;4866818;29;20233;-76
2023/11/13 04:26:08;;;;;;;7.03;5.30;;;6.70;99.90;;;;;;4866217;29;20242;-77
2023/11/13 04:28:34;;;;;;;8.13;6.00;;;6.80;99.90;;;;;;4865383;29;20664;-76
2023/11/13 04:31:02;;;;;;;9.13;5.50;;;6.80;99.90;;;;;;4875378;29;20455;-76
2023/11/13 04:33:27;;;;;;;8.10;5.60;;;6.80;99.90;;;;;;4868131;29;20204;-77
2023/11/13 04:35:54;;;;;;;10.20;5.50;;;6.80;99.90;;;;;;4867740;29;20444;-77
2023/11/13 04:38:20;;;;;;;9.13;5.50;;;6.80;99.90;;;;;;4859586;29;20281;-77
2023/11/13 04:40:45;;;;;;;8.50;5.60;;;6.80;99.90;;;;;;4875418;29;20470;-77
2023/11/13 04:43:12;;;;;;;7.33;5.43;;;6.80;99.90;;;;;;4877429;29;20490;-77
2023/11/13 04:45:39;;;;;;;6.80;5.60;;;6.80;99.90;;;;;;4869679;29;20212;-76
2023/11/13 04:48:05;;;;;;;7.97;5.67;;;6.90;99.90;;;;;;4881828;29;20528;-76
2023/11/13 04:50:31;;;;;;;8.97;5.53;;;6.90;99.90;;;;;;4884412;29;20424;-77
2023/11/13 04:52:56;;;;;;;6.47;5.10;;;6.90;99.90;;;;;;4877194;29;20488;-76
2023/11/13 04:55:22;;;;;;;12.20;5.67;;;6.90;99.90;;;;;;4871426;29;20505;-76
2023/11/13 04:57:47;;;;;;;6.80;4.60;;;7.00;99.90;;;;;;4881236;29;20474;-78
2023/11/13 05:00:13;;;;;;;6.10;5.37;;;6.90;99.90;;;;;;4869990;29;20188;-77
2023/11/13 05:02:41;;;;;;;6.03;4.90;;;6.90;99.90;;;;;;4894299;29;20188;-76
2023/11/13 05:05:07;;;;;;;8.70;5.17;;;6.90;99.90;;;;;;4884596;29;20456;-77
2023/11/13 05:07:33;;;;;;;10.70;5.57;;;7.00;99.90;;;;;;4862802;29;20513;-77
2023/11/13 05:10:00;;;;;;;7.90;5.50;;;6.90;99.90;;;;;;4883068;29;20437;-78
2023/11/13 05:12:25;;;;;;;7.07;5.33;;;6.90;99.90;;;;;;4854905;29;20470;-77
2023/11/13 05:14:51;;;;;;;8.60;6.07;;;7.00;99.90;;;;;;4857824;29;20467;-76
2023/11/13 05:17:17;;;;;;;9.17;5.90;;;7.00;99.90;;;;;;4894377;29;20191;-76
2023/11/13 05:19:42;;;;;;;8.77;7.80;;;7.10;99.90;;;;;;4886239;29;20184;-77
2023/11/13 05:22:08;;;;;;;6.30;5.07;;;7.20;99.90;;;;;;4863368;29;20192;-76
2023/11/13 05:24:33;;;;;;;10.93;5.50;;;7.10;99.90;;;;;;4877898;29;20216;-75
2023/11/13 05:26:59;;;;;;;7.53;4.43;;;7.10;99.90;;;;;;4869212;29;20208;-76
2023/11/13 05:29:26;;;;;;;7.30;5.33;;;7.10;99.90;;;;;;4888517;29;20249;-78
2023/11/13 05:31:52;;;;;;;5.80;4.90;;;7.10;99.90;;;;;;4870566;29;20290;-77
2023/11/13 05:34:19;;;;;;;7.10;5.70;;;7.20;99.90;;;;;;4880933;29;20436;-76
2023/11/13 05:36:46;;;;;;;6.40;5.10;;;7.10;99.90;;;;;;4887132;29;20406;-78
2023/11/13 05:39:11;;;;;;;7.00;4.70;;;7.20;99.90;;;;;;4897150;29;20421;-78
2023/11/13 05:41:37;;;;;;;8.70;5.10;;;7.30;99.90;;;;;;4863463;29;20405;-78
2023/11/13 05:44:03;;;;;;;6.83;4.30;;;7.30;99.90;;;;;;4868720;29;20200;-76
2023/11/13 05:46:29;;;;;;;6.63;4.80;;;7.20;99.90;;;;;;4877559;29;20445;-76
2023/11/13 05:48:55;;;;;;;6.53;5.30;;;7.20;99.90;;;;;;4888789;29;20177;-75
2023/11/13 05:51:21;;;;;;;6.53;4.10;;;7.30;99.90;;;;;;4870382;29;20229;-76
2023/11/13 05:53:47;;;;;;;6.23;5.10;;;7.30;99.90;;;;;;4873695;29;20287;-77
2023/11/13 05:56:13;;;;;;;6.60;4.03;;;7.30;99.90;;;;;;4878107;29;20460;-77
2023/11/13 05:58:39;;;;;;;7.30;5.17;;;7.30;99.90;;;;;;4864556;29;20441;-78
2023/11/13 06:01:04;;;;;;;5.20;4.23;;;7.20;99.90;;;;;;4862488;29;20196;-77
2023/11/13 06:03:31;;;;;;;5.47;4.80;;;7.40;99.90;;;;;;4883967;29;20417;-76
2023/11/13 06:05:57;;;;;;;6.17;4.60;;;7.30;99.90;;;;;;4874997;29;20628;-77
2023/11/13 06:08:22;;;;;;;5.87;4.33;;;7.40;99.90;;;;;;4891339;29;20427;-77
2023/11/13 06:10:48;;;;;;;4.70;3.40;;;7.40;99.90;;;;;;4896936;29;20409;-76
2023/11/13 06:13:14;;;;;;;5.20;4.50;;;7.30;99.90;;;;;;4866189;29;20193;-77
2023/11/13 06:15:40;;;;;;;6.57;4.90;;;7.30;99.90;;;;;;4882162;29;20215;-76
2023/11/13 06:18:10;;;;;;;5.20;4.20;;;7.30;99.90;;;;;;4878655;29;20421;-76
2023/11/13 06:20:36;;;;;;;5.23;4.40;;;7.40;99.90;;;;;;4873147;29;20447;-76
2023/11/13 06:23:02;;;;;;;4.73;3.10;;;7.40;99.90;;;;;;4881901;29;20990;-77
2023/11/13 06:25:28;;;;;;;4.83;3.83;;;7.40;99.90;;;;;;4860001;29;20643;-77
2023/11/13 06:27:56;;;;;;;7.63;4.63;;;7.40;99.90;;;;;;4893274;29;20431;-77
2023/11/13 06:30:23;;;;;;;5.50;3.87;;;7.50;99.90;;;;;;4888404;29;20196;-78
2023/11/13 06:32:48;;;;;;;6.80;3.63;;;7.60;99.90;;;;;;4878546;29;20475;-78
2023/11/13 06:35:17;;;;;;;4.80;4.00;;;7.50;99.90;;;;;;4876851;29;20460;-77
2023/11/13 06:37:43;;;;;;;4.20;3.60;;;7.60;99.90;;;;;;4901883;29;20196;-79
2023/11/13 06:40:10;;;;;;;7.90;4.10;;;7.60;99.90;;;;;;4884407;29;20464;-79
2023/11/13 06:42:36;;;;;;;5.10;3.83;;;7.50;99.90;;;;;;4824793;29;20201;-80
2023/11/13 06:45:02;;;;;;;5.20;3.47;;;7.60;99.90;;;;;;4865655;29;20456;-76
2023/11/13 06:47:28;;;;;;;5.43;4.53;;;7.60;99.90;;;;;;4884486;29;20426;-77
2023/11/13 06:49:54;;;;;;;7.30;3.60;;;7.70;99.90;;;;;;4873962;29;20418;-79
2023/11/13 06:52:21;;;;;;;3.87;3.43;;;7.70;99.90;;;;;;4892337;29;20257;-78
2023/11/13 06:54:47;;;;;;;4.27;3.27;;;7.70;99.90;;;;;;4867843;29;20460;-79
2023/11/13 06:57:13;;;;;;;4.20;3.50;;;7.70;99.90;;;;;;4877989;29;20455;-78
2023/11/13 06:59:40;;;;;;;7.83;3.77;;;7.70;99.90;;;;;;4868357;29;20284;-78
2023/11/13 07:02:06;;;;;;;5.60;3.90;;;7.70;99.90;;;;;;4890777;29;20186;-78
2023/11/13 07:04:32;;;;;;;5.37;3.63;;;7.70;99.90;;;;;;4851911;29;20436;-79
2023/11/13 07:06:59;;;;;;;5.60;3.87;;;7.80;99.90;;;;;;4867127;29;20199;-77
2023/11/13 07:09:25;;;;;;;3.23;2.93;;;7.80;99.90;;;;;;4869963;29;20207;-80
2023/11/13 07:11:51;;;;;;;4.63;3.73;;;7.80;99.90;;;;;;4898593;29;20488;-80
2023/11/13 07:14:17;;;;;;;4.33;3.43;;;7.80;99.90;;;;;;4854990;29;20452;-78
2023/11/13 07:16:44;;;;;;;4.90;3.30;;;7.80;99.90;;;;;;4884891;29;20223;-78
2023/11/13 07:19:13;;;;;;;4.20;2.60;;;7.90;99.90;;;;;;4863541;29;20211;-78
2023/11/13 07:21:41;;;;;;;3.10;2.47;;;7.90;99.90;;;;;;4889327;29;20444;-79
2023/11/13 07:24:09;;;;;;;3.70;2.87;;;7.90;99.90;;;;;;4880346;29;20413;-79
2023/11/13 07:26:35;;;;;;;3.30;2.43;;;8.00;99.90;;;;;;4876456;29;20496;-79
2023/11/13 07:29:01;;;;;;;5.67;3.40;;;8.00;99.90;;;;;;4876966;29;20405;-79
2023/11/13 07:31:26;;;;;;;4.73;3.37;;;8.10;99.90;;;;;;4876453;29;20600;-81
2023/11/13 07:33:56;;;;;;;6.33;4.20;;;8.10;99.90;;;;;;4830361;29;20190;-78
2023/11/13 07:36:25;;;;;;;6.77;3.60;;;8.10;99.90;;;;;;4857177;29;20213;-79
2023/11/13 07:38:58;;;;;;;9.40;4.03;;;8.20;99.90;;;;;;4855874;29;20559;-78
2023/11/13 07:41:24;;;;;;;5.50;3.77;;;8.20;99.90;;;;;;4833175;29;20430;-79
2023/11/13 07:43:54;;;;;;;8.40;4.63;;;8.20;99.90;;;;;;4819832;29;20452;-81
2023/11/13 07:46:20;;;;;;;10.93;4.43;;;8.20;99.90;;;;;;4800222;29;20443;-80
2023/11/13 07:48:47;;;;;;;5.20;3.40;;;8.30;99.90;;;;;;4839587;29;20431;-80
2023/11/13 07:51:17;;;;;;;3.90;3.27;;;8.30;99.90;;;;;;4831325;29;20462;-79
2023/11/13 07:53:46;;;;;;;5.63;3.70;;;8.30;99.90;;;;;;4829615;29;20509;-81
2023/11/13 07:56:13;;;;;;;5.70;3.97;;;8.30;99.90;;;;;;4839735;29;20580;-80
2023/11/13 07:58:39;;;;;;;9.07;3.43;;;8.50;99.90;;;;;;4807777;30;20453;-78
2023/11/13 08:01:05;;;;;;;3.90;3.30;;;8.40;99.90;;;;;;4839617;29;20430;-80
2023/11/13 08:03:31;;;;;;;4.77;3.63;;;8.60;99.90;;;;;;4813285;29;20306;-80
2023/11/13 08:05:56;;;;;;;5.77;3.67;;;8.60;99.90;;;;;;4846571;29;20210;-79
2023/11/13 08:08:22;;;;;;;5.87;3.23;;;8.60;99.90;;;;;;4816266;29;20489;-81
2023/11/13 08:10:50;;;;;;;4.23;3.33;;;8.60;99.90;;;;;;4813396;29;20220;-79
2023/11/13 08:13:18;;;;;;;7.30;3.17;;;8.70;99.90;;;;;;4824949;29;20234;-80
2023/11/13 08:15:44;;;;;;;8.67;4.50;;;8.70;99.90;;;;;;4831299;29;20434;-79
2023/11/13 08:18:14;;;;;;;13.13;3.80;;;8.70;99.90;;;;;;4830076;29;20415;-78
2023/11/13 08:21:03;;;;;;;12.33;4.80;;;8.80;99.90;;;;;;4826657;29;20214;-81
2023/11/13 08:23:31;;;;;;;5.60;3.80;;;8.80;99.90;;;;;;4834408;29;20451;-82
2023/11/13 08:25:59;;;;;;;8.77;4.37;;;8.80;99.90;;;;;;4852980;29;20558;-78
2023/11/13 08:28:26;;;;;;;7.70;3.63;;;8.90;99.90;;;;;;4872690;29;20427;-80
2023/11/13 08:30:56;;;;;;;8.50;3.63;;;9.00;99.90;;;;;;4866589;29;20433;-78
2023/11/13 08:33:21;;;;;;;8.30;3.80;;;8.90;99.90;;;;;;4891490;29;20412;-80
2023/11/13 08:35:47;;;;;;;5.53;2.93;;;8.90;99.90;;;;;;4850980;29;20465;-80
2023/11/13 08:38:13;;;;;;;3.57;2.87;;;9.10;99.90;;;;;;4868333;29;20195;-79
2023/11/13 08:40:39;;;;;;;4.03;2.20;;;9.00;99.90;;;;;;4885625;29;20453;-78
2023/11/13 08:43:10;;;;;;;2.87;2.43;;;9.00;99.90;;;;;;4841282;29;20476;-80
2023/11/13 08:45:39;;;;;;;6.27;2.90;;;9.00;99.90;;;;;;4851819;29;20276;-80
2023/11/13 08:48:05;;;;;;;3.70;2.47;;;9.00;99.90;;;;;;4874612;29;20438;-81
2023/11/13 08:50:33;;;;;;;2.83;2.07;;;9.10;99.90;;;;;;4853127;29;20412;-80
2023/11/13 08:53:01;;;;;;;3.33;2.30;;;9.10;99.90;;;;;;4853443;29;20480;-79
2023/11/13 08:55:27;;;;;;;4.83;2.10;;;9.10;99.90;;;;;;4880426;29;20584;-81
2023/11/13 08:57:54;;;;;;;4.33;2.27;;;9.10;99.90;;;;;;4867402;29;20412;-82
2023/11/13 09:00:21;;;;;;;4.43;1.90;;;9.20;99.90;;;;;;4868183;29;20184;-80
2023/11/13 09:02:53;;;;;;;5.20;2.20;;;9.20;99.90;;;;;;4848132;29;20417;-80
2023/11/13 09:05:20;;;;;;;2.50;1.90;;;9.20;99.90;;;;;;4890497;29;20522;-83
2023/11/13 09:07:50;;;;;;;3.07;1.63;;;9.20;99.90;;;;;;4901254;29;20420;-82
2023/11/13 09:10:21;;;;;;;3.53;1.60;;;9.20;99.90;;;;;;4865371;29;20548;-81
2023/11/13 09:12:49;;;;;;;3.27;1.57;;;9.20;99.90;;;;;;4877414;29;20459;-81
2023/11/13 09:15:15;;;;;;;3.97;1.67;;;9.20;99.90;;;;;;4867090;29;20459;-79
2023/11/13 09:17:41;;;;;;;3.60;1.60;;;9.30;99.90;;;;;;4881075;29;20451;-79
2023/11/13 09:20:08;;;;;;;2.40;1.90;;;9.30;99.90;;;;;;4873873;29;20235;-80
2023/11/13 09:22:36;;;;;;;2.87;2.10;;;9.30;99.90;;;;;;4877819;29;20422;-80
2023/11/13 09:25:04;;;;;;;3.00;1.80;;;9.30;99.90;;;;;;4862426;29;20491;-81
2023/11/13 09:27:30;;;;;;;3.07;2.20;;;9.30;99.90;;;;;;4873539;29;20464;-79
2023/11/13 09:29:57;;;;;;;3.50;2.53;;;9.40;99.90;;;;;;4867820;29;20464;-77
2023/11/13 09:32:23;;;;;;;8.30;2.47;;;9.40;99.90;;;;;;4869257;29;20569;-78
2023/11/13 09:34:59;;;;;;;6.07;2.53;;;9.40;99.90;;;;;;4885637;29;20467;-82
2023/11/13 09:37:25;;;;;;;3.33;2.50;;;9.30;99.90;;;;;;4895964;29;20442;-77
2023/11/13 09:39:51;;;;;;;3.70;2.40;;;9.30;99.90;;;;;;4868811;29;20458;-79
2023/11/13 09:42:19;;;;;;;5.47;2.53;;;9.30;99.90;;;;;;4885732;29;20204;-80
2023/11/13 09:44:48;;;;;;;3.20;2.00;;;9.30;99.90;;;;;;4853798;29;20457;-80
2023/11/13 09:47:18;;;;;;;3.00;2.60;;;9.20;99.90;;;;;;4864217;29;20437;-79
2023/11/13 09:49:50;;;;;;;4.10;2.50;;;9.20;99.90;;;;;;4877034;29;20432;-80
2023/11/13 09:52:18;;;;;;;3.30;1.80;;;9.20;99.90;;;;;;4885413;29;20467;-79
2023/11/13 09:54:46;;;;;;;5.23;1.77;;;9.20;99.90;;;;;;4877189;29;20472;-81
2023/11/13 09:57:14;;;;;;;5.70;2.20;;;9.20;99.90;;;;;;4822011;29;20450;-81
2023/11/13 09:59:51;;;;;;;5.40;1.97;;;9.20;99.90;;;;;;4869838;29;20421;-81
2023/11/13 10:02:23;;;;;;;5.50;2.37;;;9.20;99.90;;;;;;4873835;29;20455;-79
2023/11/13 10:04:49;;;;;;;4.00;1.90;;;9.30;99.90;;;;;;4893420;29;20453;-81
2023/11/13 10:07:20;;;;;;;3.90;2.50;;;9.30;99.90;;;;;;4873777;29;20428;-82
2023/11/13 10:10:05;;;;;;;3.00;1.97;;;9.30;99.90;;;;;;4882490;29;20494;-80
2023/11/13 10:12:39;;;;;;;5.33;2.63;;;9.40;99.90;;;;;;4861376;29;20453;-80
2023/11/13 10:15:12;;;;;;;2.90;2.07;;;9.40;99.90;;;;;;4875220;29;20495;-80
2023/11/13 10:18:04;;;;;;;3.97;2.13;;;9.50;99.90;;;;;;4864913;29;20468;-78
2023/11/13 10:20:30;;;;;;;2.73;1.70;;;9.50;99.90;;;;;;4868123;29;20425;-81
2023/11/13 10:23:05;;;;;;;2.30;2.00;;;9.50;99.90;;;;;;4853096;29;20450;-80
2023/11/13 10:25:58;;;;;;;2.13;1.90;;;9.50;99.90;;;;;;4870135;29;20488;-81
2023/11/13 10:28:48;;;;;;;2.10;1.90;;;9.70;99.90;;;;;;4858943;29;20456;-80
2023/11/13 10:31:52;;;;;;;2.30;1.50;;;9.70;99.90;;;;;;4890622;29;20449;-79
2023/11/13 10:34:20;;;;;;;3.20;1.50;;;9.70;99.90;;;;;;4852198;29;20493;-81
2023/11/13 10:37:18;;;;;;;1.70;1.40;;;9.70;99.90;;;;;;4848642;29;20421;-80
2023/11/13 10:40:06;;;;;;;1.67;1.30;;;9.70;99.90;;;;;;4844263;29;20505;-82
2023/11/13 10:42:35;;;;;;;2.53;1.27;;;9.80;99.90;;;;;;4847406;29;20447;-79
2023/11/13 10:45:12;;;;;;;2.50;1.80;;;9.80;99.90;;;;;;4847975;29;20470;-82
2023/11/13 10:47:46;;;;;;;2.30;1.67;;;9.90;99.90;;;;;;4830271;29;20419;-78
2023/11/13 10:50:18;;;;;;;1.63;1.53;;;10.00;99.90;;;;;;4819305;29;20527;-81
2023/11/13 10:52:49;;;;;;;5.10;1.73;;;10.00;99.90;;;;;;4841643;29;20485;-80
2023/11/13 10:55:19;;;;;;;2.00;1.80;;;10.00;99.90;;;;;;4837752;29;20458;-81
2023/11/13 10:57:51;;;;;;;2.33;1.73;;;10.00;99.90;;;;;;4848458;29;20455;-79
2023/11/13 11:00:40;;;;;;;3.07;2.07;;;10.00;99.90;;;;;;4839642;29;20446;-80
2023/11/13 11:03:30;;;;;;;1.87;1.67;;;10.00;99.90;;;;;;4836994;29;20482;-81
2023/11/13 11:09:27;;;;;;;2.20;2.00;;;10.10;99.90;;;;;;4902287;29;20514;-81
2023/11/13 11:11:59;;;;;;;6.00;1.90;;;10.10;99.90;;;;;;4866768;29;20500;-83
2023/11/13 11:14:54;;;;;;;2.40;1.50;;;10.10;99.90;;;;;;4837637;29;20448;-79
2023/11/13 11:17:46;;;;;;;2.50;1.77;;;10.10;99.90;;;;;;4827084;29;20668;-80
2023/11/13 11:20:27;;;;;;;2.30;2.10;;;10.20;99.90;;;;;;5164702;24;20492;-80
2023/11/13 11:23:22;;;;;;;2.10;1.50;;;10.20;99.90;;;;;;4856047;29;20434;-80
2023/11/13 11:26:11;;;;;;;2.30;1.80;;;10.30;99.90;;;;;;4839947;29;20452;-81
2023/11/13 11:28:44;;;;;;;2.77;1.60;;;10.30;99.90;;;;;;4835890;29;20478;-82
2023/11/13 11:31:30;;;;;;;3.30;2.10;;;10.40;99.90;;;;;;4844382;29;20421;-79
2023/11/13 11:34:01;;;;;;;2.90;1.70;;;10.40;99.90;;;;;;4848075;29;20455;-82
2023/11/13 11:36:33;;;;;;;2.33;2.00;;;10.30;99.90;;;;;;4853640;29;20462;-81
2023/11/13 11:39:26;;;;;;;2.20;1.80;;;10.20;99.90;;;;;;4842871;29;20419;-80
2023/11/13 11:41:54;;;;;;;5.30;2.70;;;10.30;99.90;;;;;;4849712;29;20427;-79
2023/11/13 11:44:48;;;;;;;3.13;2.60;;;10.30;99.90;;;;;;4874184;29;20530;-80
2023/11/13 11:47:27;;;;;;;3.00;2.20;;;10.30;99.90;;;;;;4846942;29;20231;-81
2023/11/13 11:50:06;;;;;;;4.10;2.67;;;10.40;99.90;;;;;;4875880;29;20441;-80
2023/11/13 11:52:51;;;;;;;3.47;3.03;;;10.40;99.90;;;;;;4853915;29;20471;-80
2023/11/13 11:55:23;;;;;;;3.33;2.53;;;10.40;99.90;;;;;;4852542;29;20499;-80
2023/11/13 11:57:52;;;;;;;3.10;2.20;;;10.40;99.90;;;;;;4836510;29;20398;-81
2023/11/13 12:00:31;;;;;;;4.90;2.10;;;10.40;99.90;;;;;;4843681;29;20423;-81
2023/11/13 12:03:26;;;;;;;3.47;2.37;;;10.40;99.90;;;;;;4848624;29;20409;-81
2023/11/13 12:05:53;;;;;;;2.80;2.47;;;10.40;99.90;;;;;;4839824;29;20455;-80
2023/11/13 12:08:21;;;;;;;3.00;2.27;;;10.40;99.90;;;;;;4847833;29;20411;-83
2023/11/13 12:10:48;;;;;;;3.43;2.40;;;10.40;99.90;;;;;;4847632;29;20421;-80
2023/11/13 12:13:18;;;;;;;5.27;2.17;;;10.50;99.90;;;;;;4847979;29;20471;-83
2023/11/13 12:15:48;;;;;;;5.60;2.90;;;10.50;99.90;;;;;;4865430;29;20463;-84
2023/11/13 12:18:39;;;;;;;3.07;2.40;;;10.60;99.90;;;;;;4853200;29;20418;-82
2023/11/13 12:21:28;;;;;;;5.27;2.90;;;10.60;99.90;;;;;;4869817;29;20461;-82
2023/11/13 12:26:49;;;;;;;2.90;2.13;;;10.60;99.90;;;;;;5024013;23;20536;-81
2023/11/13 12:29:22;;;;;;;1.73;1.30;;;10.80;99.90;;;;;;4872739;29;20508;-85
2023/11/13 12:32:02;;;;;;;2.60;1.50;;;10.80;99.90;;;;;;4866350;29;20467;-79
2023/11/13 12:34:33;;;;;;;1.77;1.63;;;10.80;99.90;;;;;;4885497;29;20449;-81
2023/11/13 12:37:00;;;;;;;2.17;1.97;;;10.80;99.90;;;;;;4854869;29;20426;-82
2023/11/13 12:39:27;;;;;;;3.20;1.90;;;10.80;99.90;;;;;;4869146;29;20504;-83
2023/11/13 12:41:56;;;;;;;4.20;2.17;;;10.90;99.90;;;;;;4866383;29;20174;-80
2023/11/13 12:44:23;;;;;;;2.53;2.30;;;11.00;99.90;;;;;;4850923;29;20441;-82
2023/11/13 12:46:50;;;;;;;3.93;2.10;;;11.10;99.90;;;;;;4835622;29;20413;-80
2023/11/13 12:49:18;;;;;;;4.43;2.00;;;11.20;99.90;;;;;;4850883;29;20430;-82
2023/11/13 12:51:47;;;;;;;2.33;1.80;;;11.20;99.90;;;;;;4851385;29;20466;-81
2023/11/13 12:54:29;;;;;;;3.03;2.30;;;11.20;99.90;;;;;;4865981;29;20489;-82
2023/11/13 12:56:56;;;;;;;2.80;2.17;;;11.20;99.90;;;;;;4854089;29;20175;-82
2023/11/13 13:02:21;;;;;;;2.93;1.83;;;11.30;99.90;;;;;;5484777;23;20476;-82
2023/11/13 13:08:17;;;;;;;2.63;2.03;;;11.30;99.90;;;;;;5853056;23;20477;-80
2023/11/13 13:10:47;;;;;;;2.70;1.93;;;11.40;99.90;;;;;;4867771;29;20450;-79
2023/11/13 13:13:17;;;;;;;3.33;2.20;;;11.40;99.90;;;;;;4896333;29;20445;-80
2023/11/13 13:15:45;;;;;;;6.13;2.47;;;11.40;99.90;;;;;;4868548;29;20443;-81